Аэропорт: Псков. Псков

ICAO: ULOO

METAR:
2019-11-21 09:30:00
ULOO 210930Z 14005MPS 110V180 P5000 BKN019CB OVC041 05/01 Q1036 R19/090060 NOSIG RMK QFE773
METAR:
2019-11-21 07:56:00
TAF ULOO 210756Z 2109/2118 13006MPS 6000 BKN011 BKN020 TEMPO 2109/2118 15006G11MPS